OBBI/BAH METAR and TAF weather

Enter ICAO airport designator
Station Type Date Time Source
OBBI METAR 2020/09/23 18:00 UTC NOAA

OBBI 231800Z 11002KT CAVOK 33/27 Q1003 NOSIG


Station Type Date Time Source
OBBI Decoded METAR 2020/09/23 18:00 UTC NOAA

Bahrain International Airport , Bahrain (OBBI) 26-16N 050-39E 2M
Sep 23, 2020 - 02:00 PM EDT / 2020.09.23 1800 UTC
Wind: from the ESE (110 degrees) at 2 MPH (2 KT):0
Visibility: greater than 7 mile(s):0
Temperature: 91 F (33 C)
Heat index: 109.0 F (42.8 C):1
Dew Point: 80 F (27 C)
Relative Humidity: 70%
Pressure (altimeter): 29.62 in. Hg (1003 hPa)
ob: OBBI 231800Z 11002KT CAVOK 33/27 Q1003 NOSIG
cycle: 18

Station Type Date Time Source
OBBI TAF 2020/09/23 12:03 UTC NOAA

TAF TAF OBBI 231100Z 2312/2418 35010KT CAVOK
BECMG 2315/2317 VRB05KT PROB30
TEMPO 2400/2404 5000 HZ NSC
BECMG 2408/2410 35010KT

Example: see airport list